sensor_id;sensor_type;location;lat;lon;timestamp;pressure;altitude;pressure_sealevel;temperature;humidity
52249;BME280;38541;48.130;8.378;2023-07-22T00:01:45;92827.69;;;12.14;65.20
52249;BME280;38541;48.130;8.378;2023-07-22T00:04:11;92833.00;;;12.09;64.99
52249;BME280;38541;48.130;8.378;2023-07-22T00:06:38;92835.91;;;12.02;65.29
52249;BME280;38541;48.130;8.378;2023-07-22T00:09:04;92838.00;;;12.00;65.52
52249;BME280;38541;48.130;8.378;2023-07-22T00:11:32;92833.53;;;11.90;65.63
52249;BME280;38541;48.130;8.378;2023-07-22T00:13:58;92831.16;;;11.89;65.36
52249;BME280;38541;48.130;8.378;2023-07-22T00:16:25;92833.00;;;11.83;65.45
52249;BME280;38541;48.130;8.378;2023-07-22T00:18:52;92829.63;;;11.77;65.70
52249;BME280;38541;48.130;8.378;2023-07-22T00:21:20;92827.78;;;11.73;65.84
52249;BME280;38541;48.130;8.378;2023-07-22T00:23:46;92826.22;;;11.72;65.84
52249;BME280;38541;48.130;8.378;2023-07-22T00:26:15;92828.59;;;11.63;66.75
52249;BME280;38541;48.130;8.378;2023-07-22T00:28:42;92821.50;;;11.58;66.64
52249;BME280;38541;48.130;8.378;2023-07-22T00:31:09;92824.66;;;11.55;66.40
52249;BME280;38541;48.130;8.378;2023-07-22T00:33:36;92828.38;;;11.49;66.41
52249;BME280;38541;48.130;8.378;2023-07-22T00:36:03;92824.66;;;11.45;66.53
52249;BME280;38541;48.130;8.378;2023-07-22T00:38:29;92829.94;;;11.39;67.17
52249;BME280;38541;48.130;8.378;2023-07-22T00:40:57;92818.38;;;11.35;67.31
52249;BME280;38541;48.130;8.378;2023-07-22T00:43:23;92822.84;;;11.40;67.86
52249;BME280;38541;48.130;8.378;2023-07-22T00:45:52;92822.06;;;11.34;67.60
52249;BME280;38541;48.130;8.378;2023-07-22T00:48:19;92823.66;;;11.30;67.76
52249;BME280;38541;48.130;8.378;2023-07-22T00:50:46;92825.22;;;11.31;67.89
52249;BME280;38541;48.130;8.378;2023-07-22T00:53:12;92819.44;;;11.29;67.58
52249;BME280;38541;48.130;8.378;2023-07-22T00:55:39;92819.94;;;11.26;67.35
52249;BME280;38541;48.130;8.378;2023-07-22T00:58:09;92821.81;;;11.20;67.05
52249;BME280;38541;48.130;8.378;2023-07-22T01:00:35;92818.91;;;11.11;67.42
52249;BME280;38541;48.130;8.378;2023-07-22T01:03:03;92819.41;;;11.08;67.61
52249;BME280;38541;48.130;8.378;2023-07-22T01:05:30;92813.63;;;11.06;68.03
52249;BME280;38541;48.130;8.378;2023-07-22T01:07:57;92810.75;;;11.03;68.61
52249;BME280;38541;48.130;8.378;2023-07-22T01:10:23;92817.31;;;11.00;68.65
52249;BME280;38541;48.130;8.378;2023-07-22T01:12:50;92803.66;;;10.98;69.02
52249;BME280;38541;48.130;8.378;2023-07-22T01:15:17;92801.03;;;10.98;69.65
52249;BME280;38541;48.130;8.378;2023-07-22T01:17:44;92804.72;;;10.92;70.09
52249;BME280;38541;48.130;8.378;2023-07-22T01:20:12;92807.88;;;10.94;70.78
52249;BME280;38541;48.130;8.378;2023-07-22T01:26:51;92799.69;;;10.95;69.95
52249;BME280;38541;48.130;8.378;2023-07-22T01:29:18;92796.28;;;10.95;69.58
52249;BME280;38541;48.130;8.378;2023-07-22T01:31:48;92793.41;;;10.91;69.98
52249;BME280;38541;48.130;8.378;2023-07-22T01:34:15;92794.19;;;10.92;70.50
52249;BME280;38541;48.130;8.378;2023-07-22T01:36:41;92794.19;;;10.92;69.75
52249;BME280;38541;48.130;8.378;2023-07-22T01:39:09;92791.81;;;10.90;69.92
52249;BME280;38541;48.130;8.378;2023-07-22T01:41:37;92796.53;;;10.93;69.32
52249;BME280;38541;48.130;8.378;2023-07-22T01:44:04;92801.81;;;10.88;68.89
52249;BME280;38541;48.130;8.378;2023-07-22T01:46:30;92792.59;;;10.85;69.50
52249;BME280;38541;48.130;8.378;2023-07-22T01:48:57;92800.47;;;10.85;70.17
52249;BME280;38541;48.130;8.378;2023-07-22T01:51:24;92792.88;;;10.84;70.95
52249;BME280;38541;48.130;8.378;2023-07-22T01:53:51;92795.22;;;10.85;70.67
52249;BME280;38541;48.130;8.378;2023-07-22T01:56:18;92790.78;;;10.86;70.89
52249;BME280;38541;48.130;8.378;2023-07-22T01:58:46;92793.94;;;10.88;70.63
52249;BME280;38541;48.130;8.378;2023-07-22T02:01:13;92796.28;;;10.84;69.96
52249;BME280;38541;48.130;8.378;2023-07-22T02:03:42;92794.44;;;10.85;71.07
52249;BME280;38541;48.130;8.378;2023-07-22T02:06:09;92789.44;;;10.89;71.42
52249;BME280;38541;48.130;8.378;2023-07-22T02:08:35;92792.63;;;10.91;70.93
52249;BME280;38541;48.130;8.378;2023-07-22T02:11:04;92805.22;;;10.89;70.48
52249;BME280;38541;48.130;8.378;2023-07-22T02:13:32;92804.16;;;10.84;70.21
52249;BME280;38541;48.130;8.378;2023-07-22T02:16:00;92808.13;;;10.82;70.13
52249;BME280;38541;48.130;8.378;2023-07-22T02:18:27;92804.41;;;10.78;70.03
52249;BME280;38541;48.130;8.378;2023-07-22T02:20:54;92810.47;;;10.78;71.29
52249;BME280;38541;48.130;8.378;2023-07-22T02:23:22;92811.53;;;10.77;71.85
52249;BME280;38541;48.130;8.378;2023-07-22T02:25:50;92812.03;;;10.79;71.96
52249;BME280;38541;48.130;8.378;2023-07-22T02:28:17;92815.72;;;10.89;71.85
52249;BME280;38541;48.130;8.378;2023-07-22T02:30:48;92811.78;;;10.86;70.36
52249;BME280;38541;48.130;8.378;2023-07-22T02:33:15;92807.31;;;10.87;71.28
52249;BME280;38541;48.130;8.378;2023-07-22T02:35:42;92803.13;;;10.91;71.18
52249;BME280;38541;48.130;8.378;2023-07-22T02:38:08;92811.00;;;10.80;69.52
52249;BME280;38541;48.130;8.378;2023-07-22T02:40:36;92793.13;;;10.72;69.78
52249;BME280;38541;48.130;8.378;2023-07-22T02:43:03;92804.69;;;10.71;70.21
52249;BME280;38541;48.130;8.378;2023-07-22T02:45:30;92799.44;;;10.71;70.28
52249;BME280;38541;48.130;8.378;2023-07-22T02:47:56;92799.94;;;10.68;69.86
52249;BME280;38541;48.130;8.378;2023-07-22T02:50:23;92799.41;;;10.61;70.02
52249;BME280;38541;48.130;8.378;2023-07-22T02:52:49;92804.38;;;10.57;70.58
52249;BME280;38541;48.130;8.378;2023-07-22T02:55:17;92800.97;;;10.56;70.53
52249;BME280;38541;48.130;8.378;2023-07-22T02:57:48;92796.78;;;10.55;70.69
52249;BME280;38541;48.130;8.378;2023-07-22T03:00:17;92789.94;;;10.54;71.42
52249;BME280;38541;48.130;8.378;2023-07-22T03:02:51;92795.72;;;10.56;72.23
52249;BME280;38541;48.130;8.378;2023-07-22T03:05:28;92793.63;;;10.59;72.12
52249;BME280;38541;48.130;8.378;2023-07-22T03:07:56;92793.91;;;10.62;71.66
52249;BME280;38541;48.130;8.378;2023-07-22T03:10:22;92792.56;;;10.65;72.39
52249;BME280;38541;48.130;8.378;2023-07-22T03:12:49;92796.25;;;10.64;72.80
52249;BME280;38541;48.130;8.378;2023-07-22T03:15:15;92800.97;;;10.67;73.31
52249;BME280;38541;48.130;8.378;2023-07-22T03:17:42;92789.44;;;10.68;72.57
52249;BME280;38541;48.130;8.378;2023-07-22T03:20:09;92783.13;;;10.64;71.40
52249;BME280;38541;48.130;8.378;2023-07-22T03:22:46;92781.25;;;10.59;70.72
52249;BME280;38541;48.130;8.378;2023-07-22T03:25:14;92787.84;;;10.56;70.47
52249;BME280;38541;48.130;8.378;2023-07-22T03:27:40;92791.78;;;10.54;70.80
52249;BME280;38541;48.130;8.378;2023-07-22T03:30:08;92793.59;;;10.48;70.57
52249;BME280;38541;48.130;8.378;2023-07-22T03:32:34;92803.56;;;10.46;70.91
52249;BME280;38541;48.130;8.378;2023-07-22T03:35:01;92800.38;;;10.39;71.39
52249;BME280;38541;48.130;8.378;2023-07-22T03:37:30;92794.88;;;10.40;72.26
52249;BME280;38541;48.130;8.378;2023-07-22T03:39:58;92788.09;;;10.45;72.48
52249;BME280;38541;48.130;8.378;2023-07-22T03:42:24;92793.06;;;10.41;71.04
52249;BME280;38541;48.130;8.378;2023-07-22T03:44:51;92783.09;;;10.43;72.59
52249;BME280;38541;48.130;8.378;2023-07-22T03:47:17;92782.84;;;10.45;73.41
52249;BME280;38541;48.130;8.378;2023-07-22T03:49:44;92786.25;;;10.50;74.01
52249;BME280;38541;48.130;8.378;2023-07-22T03:52:10;92786.25;;;10.50;73.01
52249;BME280;38541;48.130;8.378;2023-07-22T03:54:40;92786.00;;;10.47;71.34
52249;BME280;38541;48.130;8.378;2023-07-22T03:57:07;92783.09;;;10.43;71.23
52249;BME280;38541;48.130;8.378;2023-07-22T03:59:33;92790.44;;;10.41;71.45
52249;BME280;38541;48.130;8.378;2023-07-22T04:02:00;92789.63;;;10.40;71.50
52249;BME280;38541;48.130;8.378;2023-07-22T04:04:26;92791.47;;;10.40;71.90
52249;BME280;38541;48.130;8.378;2023-07-22T04:06:53;92790.19;;;10.43;72.74
52249;BME280;38541;48.130;8.378;2023-07-22T04:09:19;92782.56;;;10.46;72.93
52249;BME280;38541;48.130;8.378;2023-07-22T04:11:46;92784.94;;;10.48;72.79
52249;BME280;38541;48.130;8.378;2023-07-22T04:14:13;92780.47;;;10.48;73.03
52249;BME280;38541;48.130;8.378;2023-07-22T04:16:39;92781.25;;;10.44;72.11
52249;BME280;38541;48.130;8.378;2023-07-22T04:19:06;92779.41;;;10.44;72.08
52249;BME280;38541;48.130;8.378;2023-07-22T04:21:33;92781.50;;;10.47;71.78
52249;BME280;38541;48.130;8.378;2023-07-22T04:23:59;92779.94;;;10.46;72.40
52249;BME280;38541;48.130;8.378;2023-07-22T04:26:26;92784.66;;;10.44;72.83
52249;BME280;38541;48.130;8.378;2023-07-22T04:28:55;92776.25;;;10.42;72.41
52249;BME280;38541;48.130;8.378;2023-07-22T04:31:22;92777.53;;;10.39;72.73
52249;BME280;38541;48.130;8.378;2023-07-22T04:33:49;92781.50;;;10.47;73.46
52249;BME280;38541;48.130;8.378;2023-07-22T04:36:15;92782.31;;;10.53;73.91
52249;BME280;38541;48.130;8.378;2023-07-22T04:38:42;92785.22;;;10.56;74.04
52249;BME280;38541;48.130;8.378;2023-07-22T04:41:08;92782.31;;;10.58;74.16
52249;BME280;38541;48.130;8.378;2023-07-22T04:43:35;92783.66;;;10.61;73.57
52249;BME280;38541;48.130;8.378;2023-07-22T04:46:01;92777.59;;;10.60;72.56
52249;BME280;38541;48.130;8.378;2023-07-22T04:48:29;92778.38;;;10.61;72.37
52249;BME280;38541;48.130;8.378;2023-07-22T04:50:56;92784.69;;;10.65;72.35
52249;BME280;38541;48.130;8.378;2023-07-22T04:53:22;92784.16;;;10.68;72.19
52249;BME280;38541;48.130;8.378;2023-07-22T04:55:49;92796.25;;;10.69;72.42
52249;BME280;38541;48.130;8.378;2023-07-22T04:58:15;92794.44;;;10.75;73.32
52249;BME280;38541;48.130;8.378;2023-07-22T05:00:42;92797.34;;;10.78;72.57
52249;BME280;38541;48.130;8.378;2023-07-22T05:03:09;92798.09;;;10.79;72.01
52249;BME280;38541;48.130;8.378;2023-07-22T05:05:36;92801.00;;;10.82;72.87
52249;BME280;38541;48.130;8.378;2023-07-22T05:08:02;92805.22;;;10.89;72.94
52249;BME280;38541;48.130;8.378;2023-07-22T05:10:29;92804.19;;;10.95;72.91
52249;BME280;38541;48.130;8.378;2023-07-22T05:12:55;92803.13;;;11.01;73.00
52249;BME280;38541;48.130;8.378;2023-07-22T05:15:23;92806.28;;;11.03;72.88
52249;BME280;38541;48.130;8.378;2023-07-22T05:17:50;92806.03;;;11.05;73.31
52249;BME280;38541;48.130;8.378;2023-07-22T05:20:17;92804.16;;;11.05;73.46
52249;BME280;38541;48.130;8.378;2023-07-22T05:22:43;92808.13;;;11.08;73.35
52249;BME280;38541;48.130;8.378;2023-07-22T05:25:10;92816.53;;;11.15;73.61
52249;BME280;38541;48.130;8.378;2023-07-22T05:27:36;92812.59;;;11.23;74.17
52249;BME280;38541;48.130;8.378;2023-07-22T05:30:03;92813.91;;;11.31;73.81
52249;BME280;38541;48.130;8.378;2023-07-22T05:32:35;92809.94;;;11.38;73.86
52249;BME280;38541;48.130;8.378;2023-07-22T05:35:02;92811.50;;;11.45;73.86
52249;BME280;38541;48.130;8.378;2023-07-22T05:37:31;92816.50;;;11.51;74.04
52249;BME280;38541;48.130;8.378;2023-07-22T05:39:59;92812.03;;;11.57;73.98
52249;BME280;38541;48.130;8.378;2023-07-22T05:42:26;92817.81;;;11.59;74.29
52249;BME280;38541;48.130;8.378;2023-07-22T05:44:54;92811.25;;;11.62;74.49
52249;BME280;38541;48.130;8.378;2023-07-22T05:47:21;92818.84;;;11.68;74.99
52249;BME280;38541;48.130;8.378;2023-07-22T05:49:47;92814.88;;;11.71;74.95
52249;BME280;38541;48.130;8.378;2023-07-22T05:52:14;92819.09;;;11.77;75.14
52249;BME280;38541;48.130;8.378;2023-07-22T05:54:40;92820.91;;;11.92;74.64
52249;BME280;38541;48.130;8.378;2023-07-22T05:57:07;92812.72;;;12.04;74.60
52249;BME280;38541;48.130;8.378;2023-07-22T05:59:34;92820.31;;;12.16;73.96
52249;BME280;38541;48.130;8.378;2023-07-22T06:02:07;92820.25;;;12.32;73.77
52249;BME280;38541;48.130;8.378;2023-07-22T06:04:34;92817.59;;;12.42;73.77
52249;BME280;38541;48.130;8.378;2023-07-22T06:07:00;92819.09;;;12.53;73.84
52249;BME280;38541;48.130;8.378;2023-07-22T06:09:27;92816.94;;;12.66;73.74
52249;BME280;38541;48.130;8.378;2023-07-22T06:11:53;92820.00;;;12.78;73.62
52249;BME280;38541;48.130;8.378;2023-07-22T06:14:20;92821.00;;;12.88;73.08
52249;BME280;38541;48.130;8.378;2023-07-22T06:16:46;92819.88;;;12.99;72.80
52249;BME280;38541;48.130;8.378;2023-07-22T06:19:14;92824.53;;;13.12;72.58
52249;BME280;38541;48.130;8.378;2023-07-22T06:21:40;92825.22;;;13.23;71.82
52249;BME280;38541;48.130;8.378;2023-07-22T06:24:07;92829.09;;;13.36;71.30
52249;BME280;38541;48.130;8.378;2023-07-22T06:26:33;92829.03;;;13.47;70.83
52249;BME280;38541;48.130;8.378;2023-07-22T06:29:00;92826.81;;;13.59;69.31
52249;BME280;38541;48.130;8.378;2023-07-22T06:31:26;92827.22;;;13.72;68.60
52249;BME280;38541;48.130;8.378;2023-07-22T06:33:57;92827.63;;;13.84;67.98
52249;BME280;38541;48.130;8.378;2023-07-22T06:36:24;92824.84;;;14.00;66.25
52249;BME280;38541;48.130;8.378;2023-07-22T06:38:51;92834.09;;;14.21;64.67
52249;BME280;38541;48.130;8.378;2023-07-22T06:41:18;92831.78;;;14.39;63.89
52249;BME280;38541;48.130;8.378;2023-07-22T06:43:45;92834.25;;;14.54;62.66
52249;BME280;38541;48.130;8.378;2023-07-22T06:46:12;92844.09;;;14.68;61.60
52249;BME280;38541;48.130;8.378;2023-07-22T06:48:38;92835.00;;;14.79;61.13
52249;BME280;38541;48.130;8.378;2023-07-22T06:51:06;92845.16;;;14.91;60.53
52249;BME280;38541;48.130;8.378;2023-07-22T06:53:33;92844.72;;;15.03;59.98
52249;BME280;38541;48.130;8.378;2023-07-22T06:56:00;92838.50;;;15.13;59.61
52249;BME280;38541;48.130;8.378;2023-07-22T06:58:26;92842.06;;;15.22;58.26
52249;BME280;38541;48.130;8.378;2023-07-22T07:00:54;92839.56;;;15.31;58.84
52249;BME280;38541;48.130;8.378;2023-07-22T07:03:22;92843.59;;;15.43;57.72
52249;BME280;38541;48.130;8.378;2023-07-22T07:05:54;92846.31;;;15.57;56.88
52249;BME280;38541;48.130;8.378;2023-07-22T07:08:21;92847.69;;;15.68;55.45
52249;BME280;38541;48.130;8.378;2023-07-22T07:10:49;92845.38;;;15.80;56.68
52249;BME280;38541;48.130;8.378;2023-07-22T07:13:15;92848.66;;;15.91;55.81
52249;BME280;38541;48.130;8.378;2023-07-22T07:15:46;92840.94;;;16.09;55.12
52249;BME280;38541;48.130;8.378;2023-07-22T07:18:13;92842.22;;;16.11;54.65
52249;BME280;38541;48.130;8.378;2023-07-22T07:20:40;92839.56;;;16.25;55.24
52249;BME280;38541;48.130;8.378;2023-07-22T07:23:06;92844.56;;;16.41;54.44
52249;BME280;38541;48.130;8.378;2023-07-22T07:25:33;92840.22;;;16.59;53.82
52249;BME280;38541;48.130;8.378;2023-07-22T07:27:59;92844.22;;;16.85;53.58
52249;BME280;38541;48.130;8.378;2023-07-22T07:30:26;92839.19;;;16.97;53.75
52249;BME280;38541;48.130;8.378;2023-07-22T07:32:52;92847.06;;;17.02;53.62
52249;BME280;38541;48.130;8.378;2023-07-22T07:35:19;92841.81;;;17.11;53.16
52249;BME280;38541;48.130;8.378;2023-07-22T07:37:45;92852.13;;;17.13;52.67
52249;BME280;38541;48.130;8.378;2023-07-22T07:40:12;92853.19;;;17.11;53.37
52249;BME280;38541;48.130;8.378;2023-07-22T07:42:39;92852.59;;;17.15;52.63
52249;BME280;38541;48.130;8.378;2023-07-22T07:45:06;92854.59;;;17.09;51.66
52249;BME280;38541;48.130;8.378;2023-07-22T07:47:32;92859.72;;;17.05;52.48
52249;BME280;38541;48.130;8.378;2023-07-22T07:49:59;92853.22;;;16.97;52.71
52249;BME280;38541;48.130;8.378;2023-07-22T07:52:25;92853.03;;;16.94;51.22
52249;BME280;38541;48.130;8.378;2023-07-22T07:54:52;92857.75;;;16.97;51.57
52249;BME280;38541;48.130;8.378;2023-07-22T07:57:18;92855.75;;;17.17;51.43
52249;BME280;38541;48.130;8.378;2023-07-22T07:59:45;92857.34;;;17.40;52.63
52249;BME280;38541;48.130;8.378;2023-07-22T08:02:11;92859.94;;;17.54;50.42
52249;BME280;38541;48.130;8.378;2023-07-22T08:04:38;92858.28;;;17.67;50.63
52249;BME280;38541;48.130;8.378;2023-07-22T08:07:05;92860.72;;;17.78;50.59
52249;BME280;38541;48.130;8.378;2023-07-22T08:09:32;92867.06;;;17.68;50.55
52249;BME280;38541;48.130;8.378;2023-07-22T08:11:58;92866.63;;;17.52;50.78
52249;BME280;38541;48.130;8.378;2023-07-22T08:14:25;92865.25;;;17.54;50.24
52249;BME280;38541;48.130;8.378;2023-07-22T08:16:53;92863.97;;;17.75;49.90
52249;BME280;38541;48.130;8.378;2023-07-22T08:19:20;92875.19;;;17.94;48.97
52249;BME280;38541;48.130;8.378;2023-07-22T08:21:46;92847.88;;;18.03;48.29
52249;BME280;38541;48.130;8.378;2023-07-22T08:24:13;92853.28;;;18.20;48.70
52249;BME280;38541;48.130;8.378;2023-07-22T08:26:40;92867.94;;;18.09;46.84
52249;BME280;38541;48.130;8.378;2023-07-22T08:29:06;92868.59;;;17.92;48.29
52249;BME280;38541;48.130;8.378;2023-07-22T08:31:33;92870.50;;;17.91;48.13
52249;BME280;38541;48.130;8.378;2023-07-22T08:33:59;92870.34;;;17.96;48.50
52249;BME280;38541;48.130;8.378;2023-07-22T08:36:26;92868.75;;;18.18;48.35
52249;BME280;38541;48.130;8.378;2023-07-22T08:38:53;92867.34;;;18.12;47.22
52249;BME280;38541;48.130;8.378;2023-07-22T08:41:19;92873.16;;;17.91;47.46
52249;BME280;38541;48.130;8.378;2023-07-22T08:43:50;92869.63;;;17.82;48.96
52249;BME280;38541;48.130;8.378;2023-07-22T08:46:20;92865.56;;;17.76;49.52
52249;BME280;38541;48.130;8.378;2023-07-22T08:48:53;92865.03;;;17.96;49.72
52249;BME280;38541;48.130;8.378;2023-07-22T08:51:20;92860.44;;;18.11;47.33
52249;BME280;38541;48.130;8.378;2023-07-22T08:53:50;92864.41;;;18.22;46.73
52249;BME280;38541;48.130;8.378;2023-07-22T08:56:36;92849.59;;;18.39;46.67
52249;BME280;38541;48.130;8.378;2023-07-22T08:59:02;92851.25;;;18.66;46.88
52249;BME280;38541;48.130;8.378;2023-07-22T09:01:31;92848.44;;;18.80;46.67
52249;BME280;38541;48.130;8.378;2023-07-22T09:03:58;92854.69;;;18.67;47.47
52249;BME280;38541;48.130;8.378;2023-07-22T09:06:26;92850.53;;;18.43;47.14
52249;BME280;38541;48.130;8.378;2023-07-22T09:08:53;92852.84;;;18.27;48.23
52249;BME280;38541;48.130;8.378;2023-07-22T09:11:20;92856.63;;;18.35;48.45
52249;BME280;38541;48.130;8.378;2023-07-22T09:13:47;92858.41;;;18.48;48.35
52249;BME280;38541;48.130;8.378;2023-07-22T09:16:15;92856.97;;;18.51;46.22
52249;BME280;38541;48.130;8.378;2023-07-22T09:18:42;92850.28;;;18.53;44.84
52249;BME280;38541;48.130;8.378;2023-07-22T09:21:08;92847.94;;;18.61;45.95
52249;BME280;38541;48.130;8.378;2023-07-22T09:23:37;92848.56;;;18.66;44.72
52249;BME280;38541;48.130;8.378;2023-07-22T09:26:14;92845.94;;;18.75;44.33
52249;BME280;38541;48.130;8.378;2023-07-22T09:31:15;92851.25;;;18.75;44.24
52249;BME280;38541;48.130;8.378;2023-07-22T09:33:41;92866.91;;;18.68;44.77
52249;BME280;38541;48.130;8.378;2023-07-22T09:36:10;92874.25;;;18.62;44.81
52249;BME280;38541;48.130;8.378;2023-07-22T09:38:37;92861.38;;;18.56;44.85
52249;BME280;38541;48.130;8.378;2023-07-22T09:41:03;92872.78;;;18.47;45.46
52249;BME280;38541;48.130;8.378;2023-07-22T09:43:31;92869.53;;;18.50;45.43
52249;BME280;38541;48.130;8.378;2023-07-22T09:46:08;92870.50;;;18.63;45.79
52249;BME280;38541;48.130;8.378;2023-07-22T09:48:51;92879.81;;;18.43;45.84
52249;BME280;38541;48.130;8.378;2023-07-22T09:51:19;92871.50;;;18.36;46.54
52249;BME280;38541;48.130;8.378;2023-07-22T09:53:47;92864.81;;;18.56;46.11
52249;BME280;38541;48.130;8.378;2023-07-22T09:56:14;92860.50;;;18.69;46.22
52249;BME280;38541;48.130;8.378;2023-07-22T09:58:43;92853.16;;;18.83;46.37
52249;BME280;38541;48.130;8.378;2023-07-22T10:01:12;92859.13;;;18.98;45.63
52249;BME280;38541;48.130;8.378;2023-07-22T10:03:40;92856.84;;;19.14;44.33
52249;BME280;38541;48.130;8.378;2023-07-22T10:06:10;92853.06;;;19.15;44.32
52249;BME280;38541;48.130;8.378;2023-07-22T10:08:37;92854.16;;;19.05;44.30
52249;BME280;38541;48.130;8.378;2023-07-22T10:11:05;92847.88;;;19.01;44.89
52249;BME280;38541;48.130;8.378;2023-07-22T10:13:33;92854.94;;;19.06;44.18
52249;BME280;38541;48.130;8.378;2023-07-22T10:16:00;92857.13;;;19.13;44.37
52249;BME280;38541;48.130;8.378;2023-07-22T10:18:27;92854.00;;;19.37;43.75
52249;BME280;38541;48.130;8.378;2023-07-22T10:20:55;92854.78;;;19.55;43.67
52249;BME280;38541;48.130;8.378;2023-07-22T10:23:25;92857.31;;;19.34;43.32
52249;BME280;38541;48.130;8.378;2023-07-22T10:25:52;92862.00;;;19.19;43.98
52249;BME280;38541;48.130;8.378;2023-07-22T10:28:22;92854.94;;;19.06;44.21
52249;BME280;38541;48.130;8.378;2023-07-22T10:30:52;92858.22;;;19.12;43.50
52249;BME280;38541;48.130;8.378;2023-07-22T10:33:18;92854.31;;;19.44;43.01
52249;BME280;38541;48.130;8.378;2023-07-22T10:36:02;92862.59;;;19.60;40.07
52249;BME280;38541;48.130;8.378;2023-07-22T10:38:30;92854.47;;;19.65;38.61
52249;BME280;38541;48.130;8.378;2023-07-22T10:40:56;92848.59;;;19.99;37.70
52249;BME280;38541;48.130;8.378;2023-07-22T10:43:31;92844.78;;;20.08;36.56
52249;BME280;38541;48.130;8.378;2023-07-22T10:46:01;92851.59;;;19.88;37.73
52249;BME280;38541;48.130;8.378;2023-07-22T10:48:35;92854.41;;;20.01;36.50
52249;BME280;38541;48.130;8.378;2023-07-22T10:51:13;92835.13;;;20.34;36.92
52249;BME280;38541;48.130;8.378;2023-07-22T10:53:46;92822.91;;;20.93;35.23
52249;BME280;38541;48.130;8.378;2023-07-22T10:56:19;92815.81;;;21.40;35.46
52249;BME280;38541;48.130;8.378;2023-07-22T11:04:07;92825.53;;;21.23;38.90
52249;BME280;38541;48.130;8.378;2023-07-22T11:06:35;92822.44;;;20.91;38.89
52249;BME280;38541;48.130;8.378;2023-07-22T11:09:01;92828.63;;;20.83;38.69
52249;BME280;38541;48.130;8.378;2023-07-22T11:11:36;92820.41;;;20.66;39.15
52249;BME280;38541;48.130;8.378;2023-07-22T11:14:17;92825.50;;;20.80;38.79
52249;BME280;38541;48.130;8.378;2023-07-22T11:16:46;92821.34;;;20.92;39.44
52249;BME280;38541;48.130;8.378;2023-07-22T11:19:14;92822.66;;;21.28;37.49
52249;BME280;38541;48.130;8.378;2023-07-22T11:21:42;92822.84;;;20.80;38.04
52249;BME280;38541;48.130;8.378;2023-07-22T11:24:09;92813.28;;;20.41;39.19
52249;BME280;38541;48.130;8.378;2023-07-22T11:26:37;92814.13;;;20.62;40.19
52249;BME280;38541;48.130;8.378;2023-07-22T11:29:06;92807.63;;;21.02;39.13
52249;BME280;38541;48.130;8.378;2023-07-22T11:31:34;92821.47;;;21.38;40.04
52249;BME280;38541;48.130;8.378;2023-07-22T11:34:04;92807.91;;;21.43;39.28
52249;BME280;38541;48.130;8.378;2023-07-22T11:36:31;92810.16;;;21.87;39.68
52249;BME280;38541;48.130;8.378;2023-07-22T11:39:03;92794.22;;;21.45;38.16
52249;BME280;38541;48.130;8.378;2023-07-22T11:41:30;92800.63;;;21.10;40.12
52249;BME280;38541;48.130;8.378;2023-07-22T11:43:58;92804.38;;;21.30;40.47
52249;BME280;38541;48.130;8.378;2023-07-22T11:46:26;92811.38;;;21.77;38.92
52249;BME280;38541;48.130;8.378;2023-07-22T11:48:54;92813.50;;;21.72;38.55
52249;BME280;38541;48.130;8.378;2023-07-22T11:51:22;92804.53;;;22.14;37.88
52249;BME280;38541;48.130;8.378;2023-07-22T11:53:50;92805.09;;;22.44;37.42
52249;BME280;38541;48.130;8.378;2023-07-22T11:56:22;92804.47;;;22.47;36.90
52249;BME280;38541;48.130;8.378;2023-07-22T11:58:50;92804.44;;;22.35;37.09
52249;BME280;38541;48.130;8.378;2023-07-22T12:01:17;92802.22;;;22.62;36.09
52249;BME280;38541;48.130;8.378;2023-07-22T12:03:44;92790.69;;;22.99;35.74
52249;BME280;38541;48.130;8.378;2023-07-22T12:06:12;92804.69;;;22.67;35.35
52249;BME280;38541;48.130;8.378;2023-07-22T12:08:49;92799.09;;;22.72;35.25
52249;BME280;38541;48.130;8.378;2023-07-22T12:11:24;92780.38;;;23.13;35.22
52249;BME280;38541;48.130;8.378;2023-07-22T12:14:08;92783.56;;;23.19;37.17
52249;BME280;38541;48.130;8.378;2023-07-22T12:16:39;92794.69;;;23.05;37.27
52249;BME280;38541;48.130;8.378;2023-07-22T12:19:07;92781.56;;;23.28;37.58
52249;BME280;38541;48.130;8.378;2023-07-22T12:21:34;92789.38;;;23.21;37.62
52249;BME280;38541;48.130;8.378;2023-07-22T12:24:01;92786.81;;;22.84;37.39
52249;BME280;38541;48.130;8.378;2023-07-22T12:26:28;92780.03;;;22.61;37.55
52249;BME280;38541;48.130;8.378;2023-07-22T12:28:54;92791.75;;;22.57;37.28
52249;BME280;38541;48.130;8.378;2023-07-22T12:31:21;92783.28;;;22.55;36.18
52249;BME280;38541;48.130;8.378;2023-07-22T12:33:47;92789.56;;;23.00;34.23
52249;BME280;38541;48.130;8.378;2023-07-22T12:36:14;92791.69;;;22.82;35.24
52249;BME280;38541;48.130;8.378;2023-07-22T12:38:40;92794.19;;;22.37;36.46
52249;BME280;38541;48.130;8.378;2023-07-22T12:41:07;92800.31;;;22.37;35.71
52249;BME280;38541;48.130;8.378;2023-07-22T12:43:33;92802.16;;;21.87;37.19
52249;BME280;38541;48.130;8.378;2023-07-22T12:46:00;92799.09;;;22.10;36.69
52249;BME280;38541;48.130;8.378;2023-07-22T12:48:26;92788.69;;;22.08;36.74
52249;BME280;38541;48.130;8.378;2023-07-22T12:50:53;92793.25;;;21.95;36.16
52249;BME280;38541;48.130;8.378;2023-07-22T12:53:20;92788.22;;;21.94;37.03
52249;BME280;38541;48.130;8.378;2023-07-22T12:55:46;92796.84;;;22.24;36.17
52249;BME280;38541;48.130;8.378;2023-07-22T12:58:13;92791.28;;;22.42;35.92
52249;BME280;38541;48.130;8.378;2023-07-22T13:00:40;92789.25;;;22.76;35.44
52249;BME280;38541;48.130;8.378;2023-07-22T13:03:07;92782.09;;;22.93;34.58
52249;BME280;38541;48.130;8.378;2023-07-22T13:05:33;92785.13;;;23.20;34.20
52249;BME280;38541;48.130;8.378;2023-07-22T13:08:00;92776.13;;;22.71;34.18
52249;BME280;38541;48.130;8.378;2023-07-22T13:10:31;92782.03;;;22.40;35.53
52249;BME280;38541;48.130;8.378;2023-07-22T13:12:59;92780.78;;;22.12;35.90
52249;BME280;38541;48.130;8.378;2023-07-22T13:15:26;92777.44;;;22.15;35.39